sensor_id;sensor_type;location;lat;lon;timestamp;P1;durP1;ratioP1;P2;durP2;ratioP2
75758;SDS011;64371;47.566;19.086;2023-04-09T00:02:10;29.30;;;16.38;;
75758;SDS011;64371;47.566;19.086;2023-04-09T00:05:13;29.45;;;16.50;;
75758;SDS011;64371;47.566;19.086;2023-04-09T00:08:15;29.52;;;16.85;;
75758;SDS011;64371;47.566;19.086;2023-04-09T00:11:18;28.00;;;15.82;;
75758;SDS011;64371;47.566;19.086;2023-04-09T00:14:20;29.37;;;16.90;;
75758;SDS011;64371;47.566;19.086;2023-04-09T00:17:24;28.63;;;16.98;;
75758;SDS011;64371;47.566;19.086;2023-04-09T00:20:27;29.35;;;17.27;;
75758;SDS011;64371;47.566;19.086;2023-04-09T00:23:29;31.13;;;17.98;;
75758;SDS011;64371;47.566;19.086;2023-04-09T00:26:32;30.30;;;17.63;;
75758;SDS011;64371;47.566;19.086;2023-04-09T00:29:34;31.53;;;17.80;;
75758;SDS011;64371;47.566;19.086;2023-04-09T00:32:36;31.85;;;18.05;;
75758;SDS011;64371;47.566;19.086;2023-04-09T00:35:38;30.25;;;18.13;;
75758;SDS011;64371;47.566;19.086;2023-04-09T00:38:41;32.15;;;18.23;;
75758;SDS011;64371;47.566;19.086;2023-04-09T00:41:43;33.22;;;19.27;;
75758;SDS011;64371;47.566;19.086;2023-04-09T00:44:46;31.07;;;18.20;;
75758;SDS011;64371;47.566;19.086;2023-04-09T00:47:48;33.17;;;18.33;;
75758;SDS011;64371;47.566;19.086;2023-04-09T00:50:51;31.95;;;18.30;;
75758;SDS011;64371;47.566;19.086;2023-04-09T00:53:53;32.13;;;17.95;;
75758;SDS011;64371;47.566;19.086;2023-04-09T00:56:56;31.98;;;18.92;;
75758;SDS011;64371;47.566;19.086;2023-04-09T01:00:00;30.77;;;17.87;;
75758;SDS011;64371;47.566;19.086;2023-04-09T01:03:03;31.15;;;17.50;;
75758;SDS011;64371;47.566;19.086;2023-04-09T01:06:12;31.63;;;17.65;;
75758;SDS011;64371;47.566;19.086;2023-04-09T01:09:35;33.47;;;18.27;;
75758;SDS011;64371;47.566;19.086;2023-04-09T01:16:15;33.73;;;19.67;;
75758;SDS011;64371;47.566;19.086;2023-04-09T01:22:31;36.10;;;19.33;;
75758;SDS011;64371;47.566;19.086;2023-04-09T01:29:30;30.45;;;18.02;;
75758;SDS011;64371;47.566;19.086;2023-04-09T01:32:34;30.87;;;18.27;;
75758;SDS011;64371;47.566;19.086;2023-04-09T01:35:43;29.98;;;18.10;;
75758;SDS011;64371;47.566;19.086;2023-04-09T01:38:47;28.30;;;16.85;;
75758;SDS011;64371;47.566;19.086;2023-04-09T01:41:52;28.63;;;17.80;;
75758;SDS011;64371;47.566;19.086;2023-04-09T01:44:57;28.02;;;16.75;;
75758;SDS011;64371;47.566;19.086;2023-04-09T01:48:00;30.70;;;17.60;;
75758;SDS011;64371;47.566;19.086;2023-04-09T01:51:05;31.27;;;16.45;;
75758;SDS011;64371;47.566;19.086;2023-04-09T01:54:07;33.47;;;18.27;;
75758;SDS011;64371;47.566;19.086;2023-04-09T01:57:12;30.30;;;17.95;;
75758;SDS011;64371;47.566;19.086;2023-04-09T02:00:15;31.60;;;17.23;;
75758;SDS011;64371;47.566;19.086;2023-04-09T02:03:22;31.10;;;17.20;;
75758;SDS011;64371;47.566;19.086;2023-04-09T02:06:34;34.25;;;19.23;;
75758;SDS011;64371;47.566;19.086;2023-04-09T02:09:45;32.53;;;19.08;;
75758;SDS011;64371;47.566;19.086;2023-04-09T02:12:50;34.03;;;18.02;;
75758;SDS011;64371;47.566;19.086;2023-04-09T02:15:53;32.80;;;19.00;;
75758;SDS011;64371;47.566;19.086;2023-04-09T02:18:57;33.23;;;19.00;;
75758;SDS011;64371;47.566;19.086;2023-04-09T02:22:03;33.55;;;18.63;;
75758;SDS011;64371;47.566;19.086;2023-04-09T02:25:05;34.70;;;18.95;;
75758;SDS011;64371;47.566;19.086;2023-04-09T02:28:08;33.17;;;18.92;;
75758;SDS011;64371;47.566;19.086;2023-04-09T02:31:10;34.60;;;19.08;;
75758;SDS011;64371;47.566;19.086;2023-04-09T02:34:12;32.47;;;18.37;;
75758;SDS011;64371;47.566;19.086;2023-04-09T02:37:15;32.17;;;17.25;;
75758;SDS011;64371;47.566;19.086;2023-04-09T02:40:17;31.85;;;17.20;;
75758;SDS011;64371;47.566;19.086;2023-04-09T02:43:20;32.20;;;18.05;;
75758;SDS011;64371;47.566;19.086;2023-04-09T02:46:22;31.42;;;17.90;;
75758;SDS011;64371;47.566;19.086;2023-04-09T02:49:24;31.53;;;17.93;;
75758;SDS011;64371;47.566;19.086;2023-04-09T02:52:27;34.17;;;18.52;;
75758;SDS011;64371;47.566;19.086;2023-04-09T02:55:29;37.22;;;20.08;;
75758;SDS011;64371;47.566;19.086;2023-04-09T02:58:31;38.55;;;20.60;;
75758;SDS011;64371;47.566;19.086;2023-04-09T03:01:33;39.20;;;20.35;;
75758;SDS011;64371;47.566;19.086;2023-04-09T03:04:39;35.83;;;19.50;;
75758;SDS011;64371;47.566;19.086;2023-04-09T03:07:41;34.55;;;20.25;;
75758;SDS011;64371;47.566;19.086;2023-04-09T03:10:43;42.58;;;21.77;;
75758;SDS011;64371;47.566;19.086;2023-04-09T03:13:46;39.45;;;21.75;;
75758;SDS011;64371;47.566;19.086;2023-04-09T03:16:48;38.83;;;20.60;;
75758;SDS011;64371;47.566;19.086;2023-04-09T03:19:50;35.10;;;19.47;;
75758;SDS011;64371;47.566;19.086;2023-04-09T03:22:53;32.78;;;18.15;;
75758;SDS011;64371;47.566;19.086;2023-04-09T03:26:05;31.88;;;17.67;;
75758;SDS011;64371;47.566;19.086;2023-04-09T03:29:15;33.20;;;18.20;;
75758;SDS011;64371;47.566;19.086;2023-04-09T03:32:18;32.75;;;18.08;;
75758;SDS011;64371;47.566;19.086;2023-04-09T03:35:20;30.93;;;17.03;;
75758;SDS011;64371;47.566;19.086;2023-04-09T03:38:25;29.90;;;17.20;;
75758;SDS011;64371;47.566;19.086;2023-04-09T03:41:29;33.78;;;17.52;;
75758;SDS011;64371;47.566;19.086;2023-04-09T03:44:35;30.13;;;16.42;;
75758;SDS011;64371;47.566;19.086;2023-04-09T03:47:42;28.90;;;16.58;;
75758;SDS011;64371;47.566;19.086;2023-04-09T03:50:45;28.20;;;16.77;;
75758;SDS011;64371;47.566;19.086;2023-04-09T03:53:51;25.48;;;14.57;;
75758;SDS011;64371;47.566;19.086;2023-04-09T03:56:54;28.95;;;16.40;;
75758;SDS011;64371;47.566;19.086;2023-04-09T03:59:58;27.80;;;16.02;;
75758;SDS011;64371;47.566;19.086;2023-04-09T04:03:03;26.98;;;16.08;;
75758;SDS011;64371;47.566;19.086;2023-04-09T04:06:32;27.07;;;15.87;;
75758;SDS011;64371;47.566;19.086;2023-04-09T04:09:54;28.48;;;15.82;;
75758;SDS011;64371;47.566;19.086;2023-04-09T04:12:57;29.10;;;16.55;;
75758;SDS011;64371;47.566;19.086;2023-04-09T04:16:07;29.90;;;16.50;;
75758;SDS011;64371;47.566;19.086;2023-04-09T04:19:12;28.58;;;15.40;;
75758;SDS011;64371;47.566;19.086;2023-04-09T04:22:19;31.53;;;16.63;;
75758;SDS011;64371;47.566;19.086;2023-04-09T04:25:26;29.60;;;16.17;;
75758;SDS011;64371;47.566;19.086;2023-04-09T04:28:29;27.42;;;15.65;;
75758;SDS011;64371;47.566;19.086;2023-04-09T04:31:32;28.10;;;15.75;;
75758;SDS011;64371;47.566;19.086;2023-04-09T04:34:35;27.60;;;16.33;;
75758;SDS011;64371;47.566;19.086;2023-04-09T04:37:48;27.53;;;15.50;;
75758;SDS011;64371;47.566;19.086;2023-04-09T04:40:52;30.10;;;16.85;;
75758;SDS011;64371;47.566;19.086;2023-04-09T04:43:56;35.22;;;19.73;;
75758;SDS011;64371;47.566;19.086;2023-04-09T04:46:59;37.97;;;21.63;;
75758;SDS011;64371;47.566;19.086;2023-04-09T04:50:02;39.55;;;20.65;;
75758;SDS011;64371;47.566;19.086;2023-04-09T04:53:11;33.37;;;19.20;;
75758;SDS011;64371;47.566;19.086;2023-04-09T04:56:20;33.33;;;17.48;;
75758;SDS011;64371;47.566;19.086;2023-04-09T04:59:36;29.02;;;16.40;;
75758;SDS011;64371;47.566;19.086;2023-04-09T05:02:42;32.03;;;17.25;;
75758;SDS011;64371;47.566;19.086;2023-04-09T05:06:08;32.95;;;17.92;;
75758;SDS011;64371;47.566;19.086;2023-04-09T05:09:17;31.07;;;17.90;;
75758;SDS011;64371;47.566;19.086;2023-04-09T05:12:33;30.00;;;16.90;;
75758;SDS011;64371;47.566;19.086;2023-04-09T05:15:39;31.48;;;16.67;;
75758;SDS011;64371;47.566;19.086;2023-04-09T05:18:45;28.75;;;16.33;;
75758;SDS011;64371;47.566;19.086;2023-04-09T05:21:48;30.20;;;16.00;;
75758;SDS011;64371;47.566;19.086;2023-04-09T05:24:55;28.03;;;15.50;;
75758;SDS011;64371;47.566;19.086;2023-04-09T05:27:58;26.00;;;14.13;;
75758;SDS011;64371;47.566;19.086;2023-04-09T05:31:02;24.85;;;14.43;;
75758;SDS011;64371;47.566;19.086;2023-04-09T05:34:07;25.48;;;14.73;;
75758;SDS011;64371;47.566;19.086;2023-04-09T05:37:18;23.92;;;13.77;;
75758;SDS011;64371;47.566;19.086;2023-04-09T05:40:25;23.67;;;14.10;;
75758;SDS011;64371;47.566;19.086;2023-04-09T05:43:28;22.23;;;12.48;;
75758;SDS011;64371;47.566;19.086;2023-04-09T05:46:30;24.23;;;14.02;;
75758;SDS011;64371;47.566;19.086;2023-04-09T05:49:34;24.13;;;13.95;;
75758;SDS011;64371;47.566;19.086;2023-04-09T05:52:43;28.65;;;14.55;;
75758;SDS011;64371;47.566;19.086;2023-04-09T05:55:47;20.20;;;12.33;;
75758;SDS011;64371;47.566;19.086;2023-04-09T05:58:57;25.70;;;14.13;;
75758;SDS011;64371;47.566;19.086;2023-04-09T06:01:59;25.23;;;14.77;;
75758;SDS011;64371;47.566;19.086;2023-04-09T06:05:01;22.48;;;13.13;;
75758;SDS011;64371;47.566;19.086;2023-04-09T06:08:04;22.77;;;13.52;;
75758;SDS011;64371;47.566;19.086;2023-04-09T06:11:12;20.30;;;12.37;;
75758;SDS011;64371;47.566;19.086;2023-04-09T06:14:15;21.48;;;13.07;;
75758;SDS011;64371;47.566;19.086;2023-04-09T06:17:19;24.90;;;14.00;;
75758;SDS011;64371;47.566;19.086;2023-04-09T06:20:21;19.80;;;11.43;;
75758;SDS011;64371;47.566;19.086;2023-04-09T06:23:23;22.60;;;13.20;;
75758;SDS011;64371;47.566;19.086;2023-04-09T06:26:26;19.20;;;11.17;;
75758;SDS011;64371;47.566;19.086;2023-04-09T06:29:28;19.45;;;11.20;;
75758;SDS011;64371;47.566;19.086;2023-04-09T06:32:30;20.80;;;12.02;;
75758;SDS011;64371;47.566;19.086;2023-04-09T06:35:44;20.55;;;11.80;;
75758;SDS011;64371;47.566;19.086;2023-04-09T06:38:46;19.48;;;11.23;;
75758;SDS011;64371;47.566;19.086;2023-04-09T06:41:49;19.07;;;10.67;;
75758;SDS011;64371;47.566;19.086;2023-04-09T06:45:07;17.27;;;10.75;;
75758;SDS011;64371;47.566;19.086;2023-04-09T06:48:10;18.25;;;11.40;;
75758;SDS011;64371;47.566;19.086;2023-04-09T06:51:12;17.77;;;10.38;;
75758;SDS011;64371;47.566;19.086;2023-04-09T06:54:15;17.52;;;10.45;;
75758;SDS011;64371;47.566;19.086;2023-04-09T06:57:18;17.00;;;10.47;;
75758;SDS011;64371;47.566;19.086;2023-04-09T07:00:20;16.45;;;9.68;;
75758;SDS011;64371;47.566;19.086;2023-04-09T07:03:23;17.00;;;10.18;;
75758;SDS011;64371;47.566;19.086;2023-04-09T07:06:28;16.67;;;10.13;;
75758;SDS011;64371;47.566;19.086;2023-04-09T07:09:31;15.80;;;10.82;;
75758;SDS011;64371;47.566;19.086;2023-04-09T07:12:33;15.50;;;9.90;;
75758;SDS011;64371;47.566;19.086;2023-04-09T07:15:38;19.25;;;10.43;;
75758;SDS011;64371;47.566;19.086;2023-04-09T07:18:43;18.45;;;10.32;;
75758;SDS011;64371;47.566;19.086;2023-04-09T07:21:46;18.05;;;10.43;;
75758;SDS011;64371;47.566;19.086;2023-04-09T07:24:48;17.60;;;10.40;;
75758;SDS011;64371;47.566;19.086;2023-04-09T07:27:55;15.73;;;9.43;;
75758;SDS011;64371;47.566;19.086;2023-04-09T07:30:59;15.65;;;9.68;;
75758;SDS011;64371;47.566;19.086;2023-04-09T07:34:05;14.80;;;9.32;;
75758;SDS011;64371;47.566;19.086;2023-04-09T07:37:07;16.70;;;10.20;;
75758;SDS011;64371;47.566;19.086;2023-04-09T07:40:10;15.38;;;10.05;;
75758;SDS011;64371;47.566;19.086;2023-04-09T07:43:12;16.53;;;9.87;;
75758;SDS011;64371;47.566;19.086;2023-04-09T07:46:18;13.07;;;8.43;;
75758;SDS011;64371;47.566;19.086;2023-04-09T07:49:22;13.52;;;8.05;;
75758;SDS011;64371;47.566;19.086;2023-04-09T07:52:25;11.20;;;5.30;;
75758;SDS011;64371;47.566;19.086;2023-04-09T07:55:28;13.55;;;7.70;;
75758;SDS011;64371;47.566;19.086;2023-04-09T07:58:30;12.63;;;7.80;;
75758;SDS011;64371;47.566;19.086;2023-04-09T08:01:32;11.13;;;7.07;;
75758;SDS011;64371;47.566;19.086;2023-04-09T08:04:35;14.50;;;8.40;;
75758;SDS011;64371;47.566;19.086;2023-04-09T08:07:37;12.73;;;7.80;;
75758;SDS011;64371;47.566;19.086;2023-04-09T08:10:40;12.07;;;7.70;;
75758;SDS011;64371;47.566;19.086;2023-04-09T08:13:42;9.20;;;5.57;;
75758;SDS011;64371;47.566;19.086;2023-04-09T08:16:45;10.75;;;6.95;;
75758;SDS011;64371;47.566;19.086;2023-04-09T08:19:48;10.68;;;5.47;;
75758;SDS011;64371;47.566;19.086;2023-04-09T08:22:51;12.68;;;7.82;;
75758;SDS011;64371;47.566;19.086;2023-04-09T08:25:53;12.05;;;8.15;;
75758;SDS011;64371;47.566;19.086;2023-04-09T08:28:55;13.10;;;8.53;;
75758;SDS011;64371;47.566;19.086;2023-04-09T08:31:58;13.18;;;8.00;;
75758;SDS011;64371;47.566;19.086;2023-04-09T08:35:00;13.75;;;8.52;;
75758;SDS011;64371;47.566;19.086;2023-04-09T08:38:03;14.23;;;8.85;;
75758;SDS011;64371;47.566;19.086;2023-04-09T08:41:05;13.95;;;8.30;;
75758;SDS011;64371;47.566;19.086;2023-04-09T08:44:07;11.83;;;7.73;;
75758;SDS011;64371;47.566;19.086;2023-04-09T08:47:10;11.82;;;7.25;;
75758;SDS011;64371;47.566;19.086;2023-04-09T08:50:13;12.50;;;8.10;;
75758;SDS011;64371;47.566;19.086;2023-04-09T08:53:15;11.30;;;7.60;;
75758;SDS011;64371;47.566;19.086;2023-04-09T08:56:18;13.93;;;8.63;;
75758;SDS011;64371;47.566;19.086;2023-04-09T08:59:23;10.27;;;6.63;;
75758;SDS011;64371;47.566;19.086;2023-04-09T09:02:25;13.98;;;8.50;;
75758;SDS011;64371;47.566;19.086;2023-04-09T09:05:37;15.35;;;7.72;;
75758;SDS011;64371;47.566;19.086;2023-04-09T09:08:41;12.57;;;6.95;;
75758;SDS011;64371;47.566;19.086;2023-04-09T09:11:44;12.10;;;7.97;;
75758;SDS011;64371;47.566;19.086;2023-04-09T09:14:49;11.70;;;7.53;;
75758;SDS011;64371;47.566;19.086;2023-04-09T09:17:55;10.38;;;6.30;;
75758;SDS011;64371;47.566;19.086;2023-04-09T09:21:09;11.75;;;6.70;;
75758;SDS011;64371;47.566;19.086;2023-04-09T09:24:15;12.52;;;8.00;;
75758;SDS011;64371;47.566;19.086;2023-04-09T09:27:35;11.70;;;7.55;;
75758;SDS011;64371;47.566;19.086;2023-04-09T09:30:40;11.47;;;6.87;;
75758;SDS011;64371;47.566;19.086;2023-04-09T09:33:42;12.95;;;8.10;;
75758;SDS011;64371;47.566;19.086;2023-04-09T09:36:45;12.85;;;8.55;;
75758;SDS011;64371;47.566;19.086;2023-04-09T09:39:48;13.48;;;8.85;;
75758;SDS011;64371;47.566;19.086;2023-04-09T09:42:53;13.82;;;8.50;;
75758;SDS011;64371;47.566;19.086;2023-04-09T09:45:57;12.57;;;8.10;;
75758;SDS011;64371;47.566;19.086;2023-04-09T09:49:00;11.82;;;6.88;;
75758;SDS011;64371;47.566;19.086;2023-04-09T09:52:02;10.55;;;7.05;;
75758;SDS011;64371;47.566;19.086;2023-04-09T09:55:12;11.77;;;7.53;;
75758;SDS011;64371;47.566;19.086;2023-04-09T09:58:17;12.63;;;8.25;;
75758;SDS011;64371;47.566;19.086;2023-04-09T10:01:32;13.33;;;7.87;;
75758;SDS011;64371;47.566;19.086;2023-04-09T10:04:36;13.02;;;8.80;;
75758;SDS011;64371;47.566;19.086;2023-04-09T10:07:39;14.52;;;8.27;;
75758;SDS011;64371;47.566;19.086;2023-04-09T10:10:44;9.75;;;5.60;;
75758;SDS011;64371;47.566;19.086;2023-04-09T10:13:49;11.70;;;7.82;;
75758;SDS011;64371;47.566;19.086;2023-04-09T10:16:55;11.53;;;7.67;;
75758;SDS011;64371;47.566;19.086;2023-04-09T10:23:20;12.57;;;7.93;;
75758;SDS011;64371;47.566;19.086;2023-04-09T10:26:28;14.10;;;8.50;;
75758;SDS011;64371;47.566;19.086;2023-04-09T10:29:33;12.98;;;8.70;;
75758;SDS011;64371;47.566;19.086;2023-04-09T10:32:42;14.10;;;8.00;;
75758;SDS011;64371;47.566;19.086;2023-04-09T10:35:45;13.55;;;7.78;;
75758;SDS011;64371;47.566;19.086;2023-04-09T10:38:48;13.32;;;8.75;;
75758;SDS011;64371;47.566;19.086;2023-04-09T10:41:52;11.50;;;7.97;;
75758;SDS011;64371;47.566;19.086;2023-04-09T10:45:16;15.20;;;8.65;;
75758;SDS011;64371;47.566;19.086;2023-04-09T10:48:20;13.23;;;8.30;;
75758;SDS011;64371;47.566;19.086;2023-04-09T10:51:26;12.32;;;8.18;;
75758;SDS011;64371;47.566;19.086;2023-04-09T10:57:35;12.07;;;8.07;;
75758;SDS011;64371;47.566;19.086;2023-04-09T11:00:39;15.05;;;9.02;;
75758;SDS011;64371;47.566;19.086;2023-04-09T11:03:43;13.47;;;9.23;;
75758;SDS011;64371;47.566;19.086;2023-04-09T11:06:47;12.88;;;8.40;;
75758;SDS011;64371;47.566;19.086;2023-04-09T11:09:50;12.77;;;8.15;;
75758;SDS011;64371;47.566;19.086;2023-04-09T11:12:52;12.85;;;9.15;;
75758;SDS011;64371;47.566;19.086;2023-04-09T11:15:56;12.93;;;8.57;;
75758;SDS011;64371;47.566;19.086;2023-04-09T11:18:59;14.47;;;9.17;;
75758;SDS011;64371;47.566;19.086;2023-04-09T11:22:04;14.27;;;8.85;;
75758;SDS011;64371;47.566;19.086;2023-04-09T11:25:09;13.85;;;8.85;;
75758;SDS011;64371;47.566;19.086;2023-04-09T11:28:18;13.57;;;8.75;;
75758;SDS011;64371;47.566;19.086;2023-04-09T11:31:25;14.93;;;9.20;;
75758;SDS011;64371;47.566;19.086;2023-04-09T11:34:28;15.13;;;9.37;;
75758;SDS011;64371;47.566;19.086;2023-04-09T11:37:31;13.48;;;8.43;;
75758;SDS011;64371;47.566;19.086;2023-04-09T11:40:39;13.35;;;8.73;;
75758;SDS011;64371;47.566;19.086;2023-04-09T11:43:50;26.73;;;18.40;;
75758;SDS011;64371;47.566;19.086;2023-04-09T11:46:53;14.30;;;9.23;;
75758;SDS011;64371;47.566;19.086;2023-04-09T11:49:55;13.03;;;8.50;;
75758;SDS011;64371;47.566;19.086;2023-04-09T11:52:58;13.13;;;8.75;;
75758;SDS011;64371;47.566;19.086;2023-04-09T11:56:00;13.73;;;8.90;;
75758;SDS011;64371;47.566;19.086;2023-04-09T11:59:03;13.45;;;8.98;;
75758;SDS011;64371;47.566;19.086;2023-04-09T12:02:06;13.02;;;8.55;;
75758;SDS011;64371;47.566;19.086;2023-04-09T12:05:09;13.93;;;9.00;;
75758;SDS011;64371;47.566;19.086;2023-04-09T12:08:33;13.70;;;8.93;;
75758;SDS011;64371;47.566;19.086;2023-04-09T12:11:37;12.68;;;8.18;;
75758;SDS011;64371;47.566;19.086;2023-04-09T12:14:44;13.02;;;8.73;;
75758;SDS011;64371;47.566;19.086;2023-04-09T12:17:48;13.32;;;8.80;;
75758;SDS011;64371;47.566;19.086;2023-04-09T12:20:56;13.43;;;9.23;;
75758;SDS011;64371;47.566;19.086;2023-04-09T12:23:58;13.70;;;8.88;;
75758;SDS011;64371;47.566;19.086;2023-04-09T12:27:01;14.50;;;9.68;;
75758;SDS011;64371;47.566;19.086;2023-04-09T12:30:03;12.27;;;8.45;;
75758;SDS011;64371;47.566;19.086;2023-04-09T12:33:06;11.73;;;7.88;;
75758;SDS011;64371;47.566;19.086;2023-04-09T12:36:12;11.77;;;8.10;;
75758;SDS011;64371;47.566;19.086;2023-04-09T12:39:14;12.98;;;7.95;;
75758;SDS011;64371;47.566;19.086;2023-04-09T12:42:17;12.70;;;8.30;;
75758;SDS011;64371;47.566;19.086;2023-04-09T12:45:19;12.68;;;8.65;;
75758;SDS011;64371;47.566;19.086;2023-04-09T12:48:22;13.18;;;8.45;;
75758;SDS011;64371;47.566;19.086;2023-04-09T12:51:25;15.53;;;8.70;;
75758;SDS011;64371;47.566;19.086;2023-04-09T12:54:28;13.38;;;9.10;;
75758;SDS011;64371;47.566;19.086;2023-04-09T12:57:30;12.43;;;8.35;;
75758;SDS011;64371;47.566;19.086;2023-04-09T13:00:33;11.80;;;8.10;;
75758;SDS011;64371;47.566;19.086;2023-04-09T13:03:36;11.02;;;7.57;;
75758;SDS011;64371;47.566;19.086;2023-04-09T13:06:41;12.77;;;9.03;;
75758;SDS011;64371;47.566;19.086;2023-04-09T13:09:48;12.45;;;8.13;;
75758;SDS011;64371;47.566;19.086;2023-04-09T13:12:53;11.77;;;8.38;;
75758;SDS011;64371;47.566;19.086;2023-04-09T13:15:55;11.60;;;8.35;;
75758;SDS011;64371;47.566;19.086;2023-04-09T13:18:58;11.98;;;8.15;;
75758;SDS011;64371;47.566;19.086;2023-04-09T13:22:00;13.97;;;8.57;;
75758;SDS011;64371;47.566;19.086;2023-04-09T13:25:03;10.98;;;7.85;;
75758;SDS011;64371;47.566;19.086;2023-04-09T13:28:06;10.60;;;7.35;;
75758;SDS011;64371;47.566;19.086;2023-04-09T13:31:08;11.57;;;7.82;;
75758;SDS011;64371;47.566;19.086;2023-04-09T13:34:10;11.63;;;8.18;;
75758;SDS011;64371;47.566;19.086;2023-04-09T13:37:13;11.37;;;8.13;;
75758;SDS011;64371;47.566;19.086;2023-04-09T13:40:15;10.93;;;7.63;;
75758;SDS011;64371;47.566;19.086;2023-04-09T13:43:18;12.07;;;8.57;;
75758;SDS011;64371;47.566;19.086;2023-04-09T13:46:21;11.45;;;7.75;;
75758;SDS011;64371;47.566;19.086;2023-04-09T13:49:24;10.60;;;7.43;;
75758;SDS011;64371;47.566;19.086;2023-04-09T13:52:28;10.07;;;7.50;;
75758;SDS011;64371;47.566;19.086;2023-04-09T13:55:30;11.55;;;7.75;;
75758;SDS011;64371;47.566;19.086;2023-04-09T13:58:33;10.88;;;7.35;;
75758;SDS011;64371;47.566;19.086;2023-04-09T14:01:35;10.55;;;7.88;;
75758;SDS011;64371;47.566;19.086;2023-04-09T14:04:37;10.35;;;7.10;;
75758;SDS011;64371;47.566;19.086;2023-04-09T14:07:40;9.83;;;6.90;;
75758;SDS011;64371;47.566;19.086;2023-04-09T14:10:42;11.60;;;7.40;;
75758;SDS011;64371;47.566;19.086;2023-04-09T14:13:45;10.00;;;7.03;;
75758;SDS011;64371;47.566;19.086;2023-04-09T14:16:48;10.10;;;7.15;;
75758;SDS011;64371;47.566;19.086;2023-04-09T14:19:51;11.20;;;8.23;;
75758;SDS011;64371;47.566;19.086;2023-04-09T14:22:53;10.57;;;7.37;;
75758;SDS011;64371;47.566;19.086;2023-04-09T14:25:56;10.95;;;7.68;;
75758;SDS011;64371;47.566;19.086;2023-04-09T14:28:58;11.75;;;7.90;;
75758;SDS011;64371;47.566;19.086;2023-04-09T14:32:00;12.43;;;8.27;;
75758;SDS011;64371;47.566;19.086;2023-04-09T14:35:03;10.30;;;7.63;;
75758;SDS011;64371;47.566;19.086;2023-04-09T14:38:06;10.93;;;7.63;;
75758;SDS011;64371;47.566;19.086;2023-04-09T14:41:10;10.88;;;7.65;;
75758;SDS011;64371;47.566;19.086;2023-04-09T14:44:13;11.40;;;7.47;;
75758;SDS011;64371;47.566;19.086;2023-04-09T14:47:15;10.27;;;7.35;;
75758;SDS011;64371;47.566;19.086;2023-04-09T14:50:17;9.52;;;6.90;;
75758;SDS011;64371;47.566;19.086;2023-04-09T14:53:20;10.30;;;6.90;;
75758;SDS011;64371;47.566;19.086;2023-04-09T14:56:22;10.38;;;7.20;;
75758;SDS011;64371;47.566;19.086;2023-04-09T14:59:26;9.90;;;7.50;;
75758;SDS011;64371;47.566;19.086;2023-04-09T15:02:28;10.27;;;7.18;;
75758;SDS011;64371;47.566;19.086;2023-04-09T15:05:31;10.88;;;7.35;;
75758;SDS011;64371;47.566;19.086;2023-04-09T15:08:33;10.53;;;7.47;;
75758;SDS011;64371;47.566;19.086;2023-04-09T15:11:35;9.85;;;7.13;;
75758;SDS011;64371;47.566;19.086;2023-04-09T15:14:37;11.15;;;7.43;;
75758;SDS011;64371;47.566;19.086;2023-04-09T15:17:40;10.90;;;7.30;;
75758;SDS011;64371;47.566;19.086;2023-04-09T15:20:42;10.18;;;6.95;;
75758;SDS011;64371;47.566;19.086;2023-04-09T15:23:44;11.17;;;7.47;;
75758;SDS011;64371;47.566;19.086;2023-04-09T15:26:47;9.98;;;6.90;;
75758;SDS011;64371;47.566;19.086;2023-04-09T15:29:50;10.70;;;6.93;;
75758;SDS011;64371;47.566;19.086;2023-04-09T15:32:52;9.88;;;6.90;;
75758;SDS011;64371;47.566;19.086;2023-04-09T15:35:55;11.00;;;7.53;;
75758;SDS011;64371;47.566;19.086;2023-04-09T15:38:57;11.63;;;7.10;;
75758;SDS011;64371;47.566;19.086;2023-04-09T15:42:00;8.85;;;5.22;;
75758;SDS011;64371;47.566;19.086;2023-04-09T15:45:02;9.70;;;6.80;;
75758;SDS011;64371;47.566;19.086;2023-04-09T15:48:05;11.48;;;7.57;;
75758;SDS011;64371;47.566;19.086;2023-04-09T15:51:07;10.55;;;7.18;;
75758;SDS011;64371;47.566;19.086;2023-04-09T15:54:10;10.13;;;6.27;;
75758;SDS011;64371;47.566;19.086;2023-04-09T15:57:12;11.48;;;6.82;;
75758;SDS011;64371;47.566;19.086;2023-04-09T16:00:15;11.38;;;7.65;;
75758;SDS011;64371;47.566;19.086;2023-04-09T16:03:17;12.18;;;7.28;;
75758;SDS011;64371;47.566;19.086;2023-04-09T16:06:20;11.13;;;6.97;;
75758;SDS011;64371;47.566;19.086;2023-04-09T16:09:22;10.90;;;6.67;;
75758;SDS011;64371;47.566;19.086;2023-04-09T16:12:25;15.10;;;9.15;;
75758;SDS011;64371;47.566;19.086;2023-04-09T16:15:27;12.65;;;7.72;;
75758;SDS011;64371;47.566;19.086;2023-04-09T16:18:29;12.27;;;8.00;;
75758;SDS011;64371;47.566;19.086;2023-04-09T16:21:32;12.45;;;7.88;;
75758;SDS011;64371;47.566;19.086;2023-04-09T16:24:34;15.10;;;8.33;;
75758;SDS011;64371;47.566;19.086;2023-04-09T16:27:37;13.40;;;8.15;;
75758;SDS011;64371;47.566;19.086;2023-04-09T16:30:39;12.70;;;8.07;;
75758;SDS011;64371;47.566;19.086;2023-04-09T16:33:41;13.75;;;8.10;;
75758;SDS011;64371;47.566;19.086;2023-04-09T16:36:43;12.63;;;8.00;;
75758;SDS011;64371;47.566;19.086;2023-04-09T16:39:46;12.43;;;7.80;;
75758;SDS011;64371;47.566;19.086;2023-04-09T16:42:48;15.50;;;8.50;;
75758;SDS011;64371;47.566;19.086;2023-04-09T16:45:51;12.15;;;7.32;;
75758;SDS011;64371;47.566;19.086;2023-04-09T16:48:54;13.32;;;8.02;;
75758;SDS011;64371;47.566;19.086;2023-04-09T16:51:56;13.05;;;8.45;;
75758;SDS011;64371;47.566;19.086;2023-04-09T16:55:00;13.10;;;8.23;;
75758;SDS011;64371;47.566;19.086;2023-04-09T16:58:03;12.80;;;7.90;;
75758;SDS011;64371;47.566;19.086;2023-04-09T17:01:05;11.80;;;7.55;;
75758;SDS011;64371;47.566;19.086;2023-04-09T17:04:07;12.73;;;8.43;;
75758;SDS011;64371;47.566;19.086;2023-04-09T17:07:10;13.52;;;8.43;;
75758;SDS011;64371;47.566;19.086;2023-04-09T17:10:12;12.00;;;7.70;;
75758;SDS011;64371;47.566;19.086;2023-04-09T17:13:16;13.18;;;8.55;;
75758;SDS011;64371;47.566;19.086;2023-04-09T17:16:18;13.95;;;8.27;;
75758;SDS011;64371;47.566;19.086;2023-04-09T17:19:22;14.13;;;8.43;;
75758;SDS011;64371;47.566;19.086;2023-04-09T17:22:24;13.57;;;8.40;;
75758;SDS011;64371;47.566;19.086;2023-04-09T17:25:26;14.57;;;8.73;;
75758;SDS011;64371;47.566;19.086;2023-04-09T17:28:29;14.80;;;8.77;;
75758;SDS011;64371;47.566;19.086;2023-04-09T17:31:31;15.05;;;9.20;;
75758;SDS011;64371;47.566;19.086;2023-04-09T17:34:33;13.55;;;8.77;;
75758;SDS011;64371;47.566;19.086;2023-04-09T17:37:36;14.60;;;8.90;;
75758;SDS011;64371;47.566;19.086;2023-04-09T17:40:39;13.03;;;8.23;;
75758;SDS011;64371;47.566;19.086;2023-04-09T17:43:41;16.20;;;9.52;;
75758;SDS011;64371;47.566;19.086;2023-04-09T17:46:44;14.38;;;8.90;;
75758;SDS011;64371;47.566;19.086;2023-04-09T17:49:47;15.73;;;9.85;;
75758;SDS011;64371;47.566;19.086;2023-04-09T17:52:49;17.42;;;10.35;;
75758;SDS011;64371;47.566;19.086;2023-04-09T17:55:51;14.37;;;9.60;;
75758;SDS011;64371;47.566;19.086;2023-04-09T17:58:53;15.77;;;9.55;;
75758;SDS011;64371;47.566;19.086;2023-04-09T18:01:56;18.55;;;10.20;;
75758;SDS011;64371;47.566;19.086;2023-04-09T18:04:58;16.75;;;9.85;;
75758;SDS011;64371;47.566;19.086;2023-04-09T18:08:01;15.25;;;9.75;;